Flight Track Log - Related Links

Times and Time Zones

All times are in EDT time to prevent confusion due to time zone crossing. See the N20EW flight status page for this flight to view local times or setup timezone preferences in your user account.

Time Position Orientation Groundspeed Altitude Reporting Facility
EDT Latitude Longitude Course Direction KTS MPH feet Rate Location/Type
Wed 09:06:08 AM 37.5636 -82.5378 85° East 93 107 2,500  Level Indianapolis Center
Wed 09:07:09 AM 37.5978 -82.5511 343° North 156 180 4,500 1,951 Climbing Indianapolis Center
Wed 09:08:11 AM 37.6128 -82.6128 287° West 182 209 6,500 2,000 Climbing Indianapolis Center
Wed 09:09:12 AM 37.6322 -82.6711 293° West 182 209 8,600 2,098 Climbing Indianapolis Center
Wed 09:10:14 AM 37.6575 -82.7375 296° West 180 207 10,800 1,659 Climbing Indianapolis Center
Wed 09:11:15 AM 37.6806 -82.7961 296° West 183 211 12,000 585 Climbing Indianapolis Center
Wed 09:12:17 AM 37.7100 -82.8658 298° West 212 244 12,000  Level Indianapolis Center
Wed 09:13:18 AM 37.7433 -82.9397 300° West 238 274 12,000 49 Level Indianapolis Center
Wed 09:14:20 AM 37.7744 -83.0078 300° West 228 262 12,100  Climbing Indianapolis Center
Wed 09:15:22 AM 37.7856 -83.0850 280° West 225 259 12,000  Descending Indianapolis Center
Wed 09:16:23 AM 37.8025 -83.1814 283° West 237 273 12,100 49 Climbing Indianapolis Center
Wed 09:17:25 AM 37.8158 -83.2636 282° West 241 277 12,100 -49 Level Indianapolis Center
Wed 09:18:26 AM 37.8317 -83.3486 283° West 247 284 12,000  Descending Indianapolis Center
Wed 09:19:28 AM 37.8442 -83.4314 281° West 243 280 12,100  Climbing Indianapolis Center
Wed 09:20:30 AM 37.8567 -83.5011 283° West 211 243 12,000  Descending Indianapolis Center
Wed 09:21:31 AM 37.8683 -83.5706 282° West 202 232 12,100 -49 Climbing Indianapolis Center
Wed 09:22:33 AM 37.8822 -83.6600 281° West 222 255 11,900 -387 Descending Indianapolis Center
Wed 09:23:35 AM 37.8956 -83.7333 283° West 216 249 11,300 -387 Descending Indianapolis Center
Wed 09:24:37 AM 37.9067 -83.8053 281° West 211 243 11,100 -293 Descending Indianapolis Center
Wed 09:25:38 AM 37.9219 -83.8828 284° West 224 258 10,700 -634 Descending Indianapolis Center
Wed 09:26:40 AM 37.9486 -83.9625 293° West 242 278 9,800 -871 Descending Indianapolis Center
Wed 09:27:42 AM 37.9806 -84.0439 296° West 254 292 8,900 -1,113 Descending Indianapolis Center
Wed 09:28:44 AM 38.0289 -84.1297 306° West 256 295 7,500 -1,220 Descending Indianapolis Center
Wed 09:29:45 AM 38.0550 -84.2128 292° West 261 300 6,400 -976 Descending Indianapolis Center
Wed 09:30:47 AM 38.0494 -84.3061 266° West 269 310 5,500 -1,016 Descending Indianapolis Center
Wed 09:31:49 AM 38.0475 -84.3969 268° West 264 304 4,300 -1,113 Descending Indianapolis Center
Wed 09:32:51 AM 38.0547 -84.4869 276° West 262 302 3,200 -1,016 Descending Indianapolis Center
Wed 09:33:53 AM 38.0633 -84.5608 278° West 239 275 2,200 -726 Descending Indianapolis Center
Wed 09:34:55 AM 38.0567 -84.6119 261° West 201 231 1,700 -484 Descending Indianapolis Center
Wed 09:36:00 AM 38.0333 -84.6000 180° South  Level FlightAware Approximate
Wed 09:43:00 AM 38.0368 -84.6086 180° South  Level Estimated

Login

Don't have an account? Register now (free) for customized features, flight alerts, and more!